Time;durP1;ratioP1;P1;durP2;ratioP2;P2;SDS_P1;SDS_P2;PMS_P1;PMS_P2;Temp;Humidity;BMP_temperature;BMP_pressure;BME280_temperature;BME280_humidity;BME280_pressure;Samples;Min_cycle;Max_cycle;Signal;HPM_P1;HPM_P2
2023/06/13 00:01:06;;;;;;;4.15;3.75;;;;;;;;;;5078800;28;20429;-68
2023/06/13 00:03:33;;;;;;;4.80;4.30;;;;;;;;;;5086505;28;20431;-68
2023/06/13 00:06:02;;;;;;;4.70;4.30;;;;;;;;;;5083754;28;20429;-71
2023/06/13 00:08:31;;;;;;;4.40;3.95;;;;;;;;;;5083473;28;20424;-67
2023/06/13 00:10:59;;;;;;;4.50;4.07;;;;;;;;;;5080487;28;20544;-68
2023/06/13 00:13:27;;;;;;;4.60;4.20;;;;;;;;;;5084221;28;20429;-68
2023/06/13 00:15:56;;;;;;;4.15;3.85;;;;;;;;;;5080086;28;20435;-68
2023/06/13 00:18:23;;;;;;;4.47;4.07;;;;;;;;;;5081120;28;20425;-68
2023/06/13 00:20:54;;;;;;;4.70;4.20;;;;;;;;;;5082967;28;20773;-70
2023/06/13 00:23:21;;;;;;;5.13;4.40;;;;;;;;;;5080931;28;20443;-70
2023/06/13 00:25:49;;;;;;;4.80;4.40;;;;;;;;;;5082921;28;20436;-70
2023/06/13 00:28:16;;;;;;;4.25;3.85;;;;;;;;;;5079513;28;20426;-70
2023/06/13 00:30:45;;;;;;;4.87;4.37;;;;;;;;;;5081932;28;20544;-70
2023/06/13 00:33:16;;;;;;;4.53;3.97;;;;;;;;;;5083535;28;20426;-69
2023/06/13 00:35:43;;;;;;;4.55;4.15;;;;;;;;;;5084559;28;20528;-68
2023/06/13 00:38:10;;;;;;;4.35;3.95;;;;;;;;;;5083353;28;20425;-67
2023/06/13 00:40:38;;;;;;;4.60;4.20;;;;;;;;;;5079707;28;20497;-67
2023/06/13 00:43:05;;;;;;;5.40;4.90;;;;;;;;;;5079424;28;20899;-69
2023/06/13 00:45:33;;;;;;;5.90;4.30;;;;;;;;;;5081432;28;20919;-67
2023/06/13 00:48:03;;;;;;;4.63;4.13;;;;;;;;;;5083286;28;20436;-69
2023/06/13 00:50:32;;;;;;;5.00;4.50;;;;;;;;;;5075860;28;20537;-70
2023/06/13 00:53:00;;;;;;;4.93;4.50;;;;;;;;;;5084270;28;20629;-68
2023/06/13 00:55:28;;;;;;;4.40;4.10;;;;;;;;;;5083241;28;20525;-70
2023/06/13 00:57:56;;;;;;;4.97;4.20;;;;;;;;;;5079483;28;20430;-68
2023/06/13 01:00:26;;;;;;;4.57;4.10;;;;;;;;;;5083553;28;20502;-67
2023/06/13 01:02:57;;;;;;;4.30;3.90;;;;;;;;;;5076688;28;20437;-68
2023/06/13 01:05:28;;;;;;;4.77;4.27;;;;;;;;;;5082292;28;20421;-67
2023/06/13 01:07:57;;;;;;;4.72;4.32;;;;;;;;;;5082654;28;20734;-68
2023/06/13 01:10:25;;;;;;;4.32;3.90;;;;;;;;;;5078768;28;20764;-68
2023/06/13 01:12:57;;;;;;;4.97;4.55;;;;;;;;;;5082504;28;20437;-68
2023/06/13 01:15:25;;;;;;;5.00;4.50;;;;;;;;;;5083558;28;20765;-66
2023/06/13 01:17:57;;;;;;;5.30;4.80;;;;;;;;;;5082476;28;20452;-67
2023/06/13 01:20:26;;;;;;;5.13;4.70;;;;;;;;;;5079298;28;20507;-67
2023/06/13 01:22:57;;;;;;;7.20;4.32;;;;;;;;;;5082625;28;20429;-69
2023/06/13 01:25:37;;;;;;;4.78;4.20;;;;;;;;;;5078615;28;20544;-68
2023/06/13 01:28:06;;;;;;;4.80;4.10;;;;;;;;;;5075994;28;20461;-68
2023/06/13 01:30:34;;;;;;;4.97;4.30;;;;;;;;;;5081927;28;20463;-67
2023/06/13 01:33:02;;;;;;;5.10;4.60;;;;;;;;;;5082116;28;20533;-67
2023/06/13 01:35:29;;;;;;;4.90;4.40;;;;;;;;;;5082110;28;20479;-68
2023/06/13 01:37:56;;;;;;;4.90;4.30;;;;;;;;;;5072976;28;20432;-67
2023/06/13 01:40:23;;;;;;;5.07;4.30;;;;;;;;;;5082822;28;20434;-67
2023/06/13 01:42:50;;;;;;;9.80;4.47;;;;;;;;;;5082983;28;20433;-68
2023/06/13 01:45:19;;;;;;;4.80;4.40;;;;;;;;;;5090739;28;20907;-68
2023/06/13 01:47:48;;;;;;;4.88;4.47;;;;;;;;;;5084258;28;20420;-68
2023/06/13 01:50:17;;;;;;;5.17;4.60;;;;;;;;;;5079173;28;20462;-67
2023/06/13 01:52:49;;;;;;;5.93;4.50;;;;;;;;;;5081751;28;20437;-70
2023/06/13 01:55:18;;;;;;;5.20;4.78;;;;;;;;;;5083115;28;20433;-68
2023/06/13 01:57:50;;;;;;;4.50;4.10;;;;;;;;;;5081271;28;20462;-67
2023/06/13 02:00:19;;;;;;;4.60;4.30;;;;;;;;;;5079196;28;20501;-68
2023/06/13 02:02:47;;;;;;;4.90;4.50;;;;;;;;;;5082243;28;20422;-68
2023/06/13 02:05:14;;;;;;;5.55;4.30;;;;;;;;;;5084762;28;20895;-68
2023/06/13 02:07:42;;;;;;;4.80;4.30;;;;;;;;;;5088003;28;20437;-68
2023/06/13 02:10:09;;;;;;;5.65;4.60;;;;;;;;;;5080579;28;20960;-69
2023/06/13 02:12:36;;;;;;;5.03;4.50;;;;;;;;;;5087450;28;20876;-67
2023/06/13 02:15:03;;;;;;;4.85;4.35;;;;;;;;;;5086998;28;20795;-68
2023/06/13 02:17:33;;;;;;;4.90;4.40;;;;;;;;;;5085526;28;20743;-67
2023/06/13 02:20:00;;;;;;;4.80;4.40;;;;;;;;;;5085590;28;20436;-67
2023/06/13 02:22:27;;;;;;;4.78;4.20;;;;;;;;;;5086989;28;20426;-69
2023/06/13 02:24:54;;;;;;;5.30;4.80;;;;;;;;;;5087733;28;20532;-68
2023/06/13 02:27:21;;;;;;;5.30;4.30;;;;;;;;;;5084243;28;20444;-69
2023/06/13 02:29:48;;;;;;;5.20;4.70;;;;;;;;;;5085093;28;20433;-67
2023/06/13 02:32:16;;;;;;;5.15;4.65;;;;;;;;;;5080819;28;20436;-69
2023/06/13 02:34:44;;;;;;;5.03;4.47;;;;;;;;;;5080053;28;20484;-70
2023/06/13 02:37:12;;;;;;;5.18;4.63;;;;;;;;;;5087287;28;20449;-68
2023/06/13 02:39:39;;;;;;;5.30;4.80;;;;;;;;;;5085993;28;20477;-67
2023/06/13 02:42:06;;;;;;;4.60;4.20;;;;;;;;;;5086936;28;20781;-68
2023/06/13 02:44:33;;;;;;;4.68;4.18;;;;;;;;;;5083050;28;20430;-68
2023/06/13 02:47:00;;;;;;;5.13;4.63;;;;;;;;;;5085835;28;20430;-68
2023/06/13 02:49:27;;;;;;;4.93;4.38;;;;;;;;;;5086412;28;20433;-68
2023/06/13 02:51:56;;;;;;;5.85;4.80;;;;;;;;;;5086697;28;20414;-67
2023/06/13 02:54:23;;;;;;;5.20;4.70;;;;;;;;;;5083155;28;20500;-66
2023/06/13 02:56:50;;;;;;;5.00;4.20;;;;;;;;;;5087762;28;20429;-70
2023/06/13 02:59:19;;;;;;;4.90;4.40;;;;;;;;;;5087054;28;20426;-70
2023/06/13 03:01:46;;;;;;;4.80;4.40;;;;;;;;;;5081184;28;20414;-67
2023/06/13 03:04:13;;;;;;;5.65;4.38;;;;;;;;;;5086975;28;20441;-67
2023/06/13 03:06:40;;;;;;;5.25;4.75;;;;;;;;;;5086958;28;20445;-67
2023/06/13 03:09:09;;;;;;;5.20;4.70;;;;;;;;;;5083174;28;20898;-69
2023/06/13 03:11:36;;;;;;;5.38;4.88;;;;;;;;;;5085557;28;20434;-69
2023/06/13 03:14:03;;;;;;;5.47;4.88;;;;;;;;;;5086251;28;20545;-67
2023/06/13 03:16:30;;;;;;;8.10;5.03;;;;;;;;;;5085157;28;20433;-68
2023/06/13 03:18:57;;;;;;;5.25;4.85;;;;;;;;;;5084045;28;20902;-68
2023/06/13 03:21:24;;;;;;;5.72;5.22;;;;;;;;;;5085768;28;20931;-68
2023/06/13 03:23:51;;;;;;;5.28;4.78;;;;;;;;;;5084658;28;20430;-68
2023/06/13 03:26:21;;;;;;;5.85;4.68;;;;;;;;;;5086979;28;20426;-68
2023/06/13 03:28:48;;;;;;;5.50;4.60;;;;;;;;;;5086811;28;20533;-67
2023/06/13 03:31:16;;;;;;;5.40;4.60;;;;;;;;;;5080266;28;20434;-68
2023/06/13 03:33:43;;;;;;;5.15;4.65;;;;;;;;;;5079592;28;20719;-68
2023/06/13 03:36:10;;;;;;;5.60;4.72;;;;;;;;;;5085163;28;20418;-67
2023/06/13 03:38:37;;;;;;;5.28;4.78;;;;;;;;;;5079967;28;20438;-66
2023/06/13 03:41:05;;;;;;;5.35;4.85;;;;;;;;;;5083153;28;20437;-68
2023/06/13 03:43:33;;;;;;;5.63;5.13;;;;;;;;;;5077962;28;20439;-70
2023/06/13 03:46:00;;;;;;;5.65;4.55;;;;;;;;;;5079560;28;21025;-69
2023/06/13 03:48:27;;;;;;;6.90;4.60;;;;;;;;;;5080695;28;20429;-69
2023/06/13 03:50:54;;;;;;;5.15;4.63;;;;;;;;;;5074778;28;20430;-69
2023/06/13 03:53:21;;;;;;;5.28;4.78;;;;;;;;;;5081057;28;20890;-71
2023/06/13 03:55:48;;;;;;;6.78;4.90;;;;;;;;;;5082888;28;20437;-68
2023/06/13 03:58:16;;;;;;;6.00;5.40;;;;;;;;;;5084439;28;20533;-68
2023/06/13 04:00:44;;;;;;;5.60;5.00;;;;;;;;;;5082852;28;20430;-69
2023/06/13 04:03:13;;;;;;;6.63;5.25;;;;;;;;;;5084328;28;20780;-69
2023/06/13 04:05:40;;;;;;;5.85;5.13;;;;;;;;;;5083882;28;20490;-67
2023/06/13 04:08:07;;;;;;;5.63;5.13;;;;;;;;;;5093318;28;20420;-68
2023/06/13 04:10:35;;;;;;;5.60;4.85;;;;;;;;;;5085716;28;20856;-68
2023/06/13 04:13:02;;;;;;;5.55;5.05;;;;;;;;;;5083463;28;20915;-68
2023/06/13 04:15:29;;;;;;;5.65;4.80;;;;;;;;;;5084611;28;20746;-68
2023/06/13 04:17:58;;;;;;;5.50;5.00;;;;;;;;;;5076913;28;20489;-68
2023/06/13 04:20:25;;;;;;;5.60;5.10;;;;;;;;;;5082530;28;20655;-68
2023/06/13 04:22:54;;;;;;;5.53;5.03;;;;;;;;;;5082538;28;20464;-68
2023/06/13 04:25:21;;;;;;;5.10;4.60;;;;;;;;;;5083642;28;20441;-69
2023/06/13 04:27:48;;;;;;;5.03;4.53;;;;;;;;;;5079484;28;20444;-68
2023/06/13 04:30:16;;;;;;;5.60;4.70;;;;;;;;;;5078844;28;20744;-72
2023/06/13 04:32:45;;;;;;;5.20;4.70;;;;;;;;;;5081663;28;20433;-67
2023/06/13 04:35:16;;;;;;;5.90;4.90;;;;;;;;;;5079967;28;20470;-69
2023/06/13 04:37:43;;;;;;;5.60;4.68;;;;;;;;;;5078658;28;20495;-69
2023/06/13 04:40:13;;;;;;;6.22;4.80;;;;;;;;;;5080967;28;20499;-67
2023/06/13 04:42:47;;;;;;;5.47;4.97;;;;;;;;;;5082302;28;20443;-67
2023/06/13 04:45:15;;;;;;;5.65;5.15;;;;;;;;;;5075146;28;20448;-67
2023/06/13 04:47:45;;;;;;;5.90;4.82;;;;;;;;;;5076435;28;20438;-67
2023/06/13 04:50:14;;;;;;;5.00;4.45;;;;;;;;;;5079975;28;20793;-71
2023/06/13 04:52:41;;;;;;;6.00;5.00;;;;;;;;;;5078955;28;20578;-69
2023/06/13 04:55:09;;;;;;;6.10;4.87;;;;;;;;;;5071132;28;20503;-68
2023/06/13 04:57:36;;;;;;;8.50;5.05;;;;;;;;;;5075884;28;20502;-68
2023/06/13 05:00:06;;;;;;;5.45;4.90;;;;;;;;;;5080918;28;20789;-69
2023/06/13 05:02:35;;;;;;;5.57;5.07;;;;;;;;;;5082283;28;20520;-68
2023/06/13 05:05:03;;;;;;;5.30;4.80;;;;;;;;;;5082148;28;20478;-68
2023/06/13 05:07:31;;;;;;;5.22;4.72;;;;;;;;;;5081991;28;20621;-69
2023/06/13 05:09:58;;;;;;;5.50;5.00;;;;;;;;;;5079950;28;20426;-68
2023/06/13 05:12:25;;;;;;;6.40;4.90;;;;;;;;;;5083992;28;20787;-69
2023/06/13 05:14:52;;;;;;;5.50;4.60;;;;;;;;;;5083235;28;20413;-68
2023/06/13 05:17:19;;;;;;;5.40;4.90;;;;;;;;;;5081023;28;20497;-68
2023/06/13 05:19:46;;;;;;;5.47;4.97;;;;;;;;;;5081692;28;20918;-69
2023/06/13 05:22:15;;;;;;;5.13;4.63;;;;;;;;;;5082729;28;20500;-68
2023/06/13 05:24:43;;;;;;;5.30;4.60;;;;;;;;;;5042545;22;20538;-64
2023/06/13 05:27:11;;;;;;;4.80;4.40;;;;;;;;;;4948757;28;20445;-63
2023/06/13 05:29:38;;;;;;;4.93;4.40;;;;;;;;;;4992253;28;20432;-62
2023/06/13 05:32:05;;;;;;;5.00;4.50;;;;;;;;;;4972078;28;20440;-63
2023/06/13 05:34:33;;;;;;;5.15;4.63;;;;;;;;;;4950943;28;20449;-63
2023/06/13 05:37:01;;;;;;;5.18;4.72;;;;;;;;;;4988454;28;20495;-63
2023/06/13 05:39:28;;;;;;;5.18;4.70;;;;;;;;;;4995042;28;20727;-64
2023/06/13 05:41:57;;;;;;;5.10;4.60;;;;;;;;;;4997883;28;21070;-64
2023/06/13 05:44:24;;;;;;;5.25;4.75;;;;;;;;;;4987546;28;20433;-64
2023/06/13 05:46:51;;;;;;;4.97;4.47;;;;;;;;;;4979210;28;20946;-64
2023/06/13 05:49:18;;;;;;;5.22;4.70;;;;;;;;;;4946979;28;20437;-63
2023/06/13 05:51:45;;;;;;;5.15;4.25;;;;;;;;;;4948046;28;20440;-64
2023/06/13 05:54:12;;;;;;;5.40;4.38;;;;;;;;;;4981123;28;20440;-63
2023/06/13 05:56:39;;;;;;;4.68;4.28;;;;;;;;;;5004004;28;20434;-64
2023/06/13 05:59:07;;;;;;;5.15;4.65;;;;;;;;;;5016393;28;20448;-63
2023/06/13 06:01:35;;;;;;;4.77;4.27;;;;;;;;;;5006971;28;20444;-63
2023/06/13 06:04:02;;;;;;;4.50;4.03;;;;;;;;;;5027968;28;20417;-63
2023/06/13 06:06:29;;;;;;;5.10;4.70;;;;;;;;;;4949408;28;20449;-63
2023/06/13 06:08:56;;;;;;;4.35;3.90;;;;;;;;;;4969798;28;20433;-63
2023/06/13 06:11:23;;;;;;;5.20;4.75;;;;;;;;;;4989772;28;20432;-63
2023/06/13 06:13:51;;;;;;;4.80;4.40;;;;;;;;;;4960064;28;20449;-64
2023/06/13 06:16:19;;;;;;;6.53;4.72;;;;;;;;;;4949821;28;20434;-65
2023/06/13 06:18:46;;;;;;;5.40;4.90;;;;;;;;;;4949708;28;20418;-61
2023/06/13 06:21:14;;;;;;;4.97;4.47;;;;;;;;;;4947797;28;20452;-62
2023/06/13 06:23:42;;;;;;;4.93;4.43;;;;;;;;;;4960184;28;20464;-61
2023/06/13 06:26:10;;;;;;;5.80;4.60;;;;;;;;;;4948032;28;20940;-64
2023/06/13 06:28:37;;;;;;;5.30;4.65;;;;;;;;;;4952311;28;20454;-63
2023/06/13 06:31:05;;;;;;;5.10;4.60;;;;;;;;;;4957902;28;20525;-64
2023/06/13 06:33:33;;;;;;;5.60;4.30;;;;;;;;;;4977221;28;20898;-64
2023/06/13 06:36:00;;;;;;;4.75;4.25;;;;;;;;;;4986926;28;20438;-64
2023/06/13 06:38:28;;;;;;;4.50;4.10;;;;;;;;;;4973045;28;21472;-70
2023/06/13 06:40:55;;;;;;;5.40;4.80;;;;;;;;;;4947173;28;20533;-69
2023/06/13 06:43:22;;;;;;;4.45;3.85;;;;;;;;;;4951394;28;20430;-70
2023/06/13 06:45:49;;;;;;;4.43;4.13;;;;;;;;;;4948210;28;20844;-69
2023/06/13 06:48:16;;;;;;;5.20;4.70;;;;;;;;;;4975860;28;20433;-68
2023/06/13 06:50:45;;;;;;;5.68;4.30;;;;;;;;;;5019914;28;20437;-68
2023/06/13 06:53:12;;;;;;;4.70;4.30;;;;;;;;;;5000972;28;20425;-69
2023/06/13 06:55:39;;;;;;;4.60;4.20;;;;;;;;;;4949343;28;20422;-69
2023/06/13 06:58:06;;;;;;;5.18;4.10;;;;;;;;;;4950080;28;20941;-68
2023/06/13 07:00:33;;;;;;;5.15;4.38;;;;;;;;;;4949004;28;20433;-69
2023/06/13 07:03:00;;;;;;;4.47;4.07;;;;;;;;;;5046975;28;20791;-69
2023/06/13 07:05:28;;;;;;;5.65;4.30;;;;;;;;;;4994340;28;20929;-68
2023/06/13 07:07:56;;;;;;;4.53;4.13;;;;;;;;;;5017818;28;20453;-69
2023/06/13 07:10:25;;;;;;;4.70;4.30;;;;;;;;;;4948892;28;20868;-69
2023/06/13 07:12:52;;;;;;;4.07;3.75;;;;;;;;;;4936628;28;20418;-67
2023/06/13 07:15:19;;;;;;;5.40;4.25;;;;;;;;;;5014476;28;20428;-69
2023/06/13 07:17:46;;;;;;;5.37;4.33;;;;;;;;;;4965640;28;20866;-67
2023/06/13 07:20:13;;;;;;;4.40;4.00;;;;;;;;;;5008640;28;20448;-68
2023/06/13 07:22:40;;;;;;;5.32;4.10;;;;;;;;;;5012089;28;20860;-68
2023/06/13 07:25:09;;;;;;;5.20;4.70;;;;;;;;;;5049132;28;20780;-68
2023/06/13 07:27:36;;;;;;;4.50;3.80;;;;;;;;;;4938003;28;20473;-69
2023/06/13 07:30:04;;;;;;;4.20;3.80;;;;;;;;;;5016597;28;20424;-69
2023/06/13 07:32:31;;;;;;;4.57;4.20;;;;;;;;;;5014132;28;20519;-68
2023/06/13 07:34:58;;;;;;;4.90;4.40;;;;;;;;;;5026981;28;20508;-67
2023/06/13 07:37:25;;;;;;;4.40;4.00;;;;;;;;;;4987107;28;20436;-67
2023/06/13 07:39:52;;;;;;;4.20;3.80;;;;;;;;;;5049174;28;20413;-67
2023/06/13 07:42:20;;;;;;;4.97;4.07;;;;;;;;;;5003118;28;20436;-67
2023/06/13 07:44:47;;;;;;;4.20;3.70;;;;;;;;;;4959432;28;20843;-67
2023/06/13 07:47:14;;;;;;;3.88;3.58;;;;;;;;;;5007592;28;20426;-67
2023/06/13 07:49:41;;;;;;;4.13;3.70;;;;;;;;;;4949898;28;20426;-67
2023/06/13 07:52:09;;;;;;;4.22;3.83;;;;;;;;;;4993535;28;20796;-67
2023/06/13 07:54:37;;;;;;;4.10;3.80;;;;;;;;;;5030131;28;20471;-67
2023/06/13 07:57:06;;;;;;;3.80;3.50;;;;;;;;;;4954548;28;20429;-67
2023/06/13 07:59:34;;;;;;;3.95;3.60;;;;;;;;;;4990953;28;20508;-68
2023/06/13 08:02:01;;;;;;;5.20;3.78;;;;;;;;;;5008006;28;20450;-67
2023/06/13 08:04:29;;;;;;;4.10;3.70;;;;;;;;;;4991902;28;20425;-67
2023/06/13 08:06:57;;;;;;;4.30;3.60;;;;;;;;;;4969876;28;20429;-67
2023/06/13 08:09:24;;;;;;;3.65;3.35;;;;;;;;;;5012993;28;20434;-67
2023/06/13 08:11:51;;;;;;;4.00;3.70;;;;;;;;;;4943615;28;20835;-67
2023/06/13 08:14:18;;;;;;;4.10;3.70;;;;;;;;;;4966598;28;20442;-67
2023/06/13 08:16:47;;;;;;;4.00;3.70;;;;;;;;;;4977886;28;20943;-67
2023/06/13 08:19:15;;;;;;;3.85;3.28;;;;;;;;;;4975335;28;20453;-67
2023/06/13 08:21:42;;;;;;;3.38;3.08;;;;;;;;;;5016468;28;20441;-67
2023/06/13 08:24:09;;;;;;;3.40;3.10;;;;;;;;;;4946394;28;20450;-67
2023/06/13 08:26:37;;;;;;;3.80;3.40;;;;;;;;;;5022731;28;20438;-68
2023/06/13 08:29:04;;;;;;;3.73;3.43;;;;;;;;;;5006273;28;20417;-68
2023/06/13 08:31:32;;;;;;;4.80;3.30;;;;;;;;;;4962490;28;20548;-67
2023/06/13 08:34:02;;;;;;;3.45;3.10;;;;;;;;;;4978360;28;20498;-67
2023/06/13 08:36:29;;;;;;;3.50;3.20;;;;;;;;;;4960050;28;20936;-68
2023/06/13 08:38:58;;;;;;;4.22;3.53;;;;;;;;;;4947034;28;20434;-69
2023/06/13 08:41:26;;;;;;;5.07;3.30;;;;;;;;;;4957533;28;20881;-69
2023/06/13 08:43:57;;;;;;;4.03;3.30;;;;;;;;;;4986102;28;20545;-67
2023/06/13 08:46:25;;;;;;;4.90;3.80;;;;;;;;;;4945702;28;20441;-67
2023/06/13 08:48:52;;;;;;;5.63;3.50;;;;;;;;;;4947017;28;20499;-68
2023/06/13 08:51:23;;;;;;;3.55;3.28;;;;;;;;;;4945081;28;20981;-67
2023/06/13 08:53:51;;;;;;;3.70;3.40;;;;;;;;;;4967562;28;20445;-67
2023/06/13 08:56:22;;;;;;;4.90;3.35;;;;;;;;;;4969838;28;20522;-67
2023/06/13 08:58:53;;;;;;;4.63;3.40;;;;;;;;;;4946349;28;21019;-67
2023/06/13 09:01:21;;;;;;;3.90;3.60;;;;;;;;;;4940785;28;20534;-66
2023/06/13 09:03:48;;;;;;;3.75;3.45;;;;;;;;;;4956439;28;20535;-66
2023/06/13 09:06:16;;;;;;;3.60;3.30;;;;;;;;;;5014033;28;20457;-67
2023/06/13 09:08:44;;;;;;;3.63;3.33;;;;;;;;;;4950605;28;20954;-68
2023/06/13 09:11:12;;;;;;;5.70;3.45;;;;;;;;;;4979560;28;20441;-67
2023/06/13 09:13:40;;;;;;;4.00;3.20;;;;;;;;;;4942592;28;20456;-67
2023/06/13 09:16:07;;;;;;;4.85;3.40;;;;;;;;;;4943935;28;20469;-67
2023/06/13 09:18:36;;;;;;;4.88;3.30;;;;;;;;;;4946698;28;20903;-66
2023/06/13 09:21:03;;;;;;;3.60;3.30;;;;;;;;;;4979067;28;20471;-67
2023/06/13 09:23:31;;;;;;;3.80;3.50;;;;;;;;;;4949146;28;20438;-67
2023/06/13 09:26:01;;;;;;;3.90;3.58;;;;;;;;;;5004637;28;20426;-67
2023/06/13 09:28:29;;;;;;;3.60;3.30;;;;;;;;;;4949227;28;20454;-67
2023/06/13 09:30:57;;;;;;;3.53;3.22;;;;;;;;;;4941852;28;20455;-67
2023/06/13 09:33:24;;;;;;;3.30;3.00;;;;;;;;;;4949177;28;20426;-67
2023/06/13 09:35:52;;;;;;;4.57;3.10;;;;;;;;;;4977162;28;20443;-66
2023/06/13 09:38:23;;;;;;;3.45;3.15;;;;;;;;;;4948004;28;20453;-67
2023/06/13 09:40:50;;;;;;;3.75;3.00;;;;;;;;;;4984337;28;20426;-67
2023/06/13 09:43:18;;;;;;;3.50;3.20;;;;;;;;;;4976843;28;20452;-67
2023/06/13 09:45:45;;;;;;;4.20;3.20;;;;;;;;;;4958472;28;20465;-68
2023/06/13 09:48:12;;;;;;;3.05;2.85;;;;;;;;;;4994410;28;20437;-68
2023/06/13 09:50:40;;;;;;;3.75;3.17;;;;;;;;;;4951961;28;20438;-67
2023/06/13 09:53:08;;;;;;;3.10;2.83;;;;;;;;;;5016662;28;20835;-67
2023/06/13 09:55:35;;;;;;;3.70;3.40;;;;;;;;;;4986953;28;20954;-67
2023/06/13 09:58:02;;;;;;;4.22;3.30;;;;;;;;;;4970053;28;20441;-67
2023/06/13 10:00:31;;;;;;;3.80;3.10;;;;;;;;;;4987949;28;20442;-67
2023/06/13 10:02:58;;;;;;;4.10;3.00;;;;;;;;;;4974742;28;20418;-68
2023/06/13 10:05:25;;;;;;;3.17;2.90;;;;;;;;;;4960796;28;20441;-67
2023/06/13 10:07:53;;;;;;;3.50;2.70;;;;;;;;;;4947879;28;20444;-67
2023/06/13 10:10:20;;;;;;;3.10;2.80;;;;;;;;;;4952579;28;20433;-67
2023/06/13 10:12:49;;;;;;;3.70;3.30;;;;;;;;;;4947381;28;20422;-67
2023/06/13 10:15:21;;;;;;;3.08;2.88;;;;;;;;;;4949484;28;20438;-68
2023/06/13 10:17:50;;;;;;;3.53;3.23;;;;;;;;;;4945954;28;20429;-67
2023/06/13 10:20:18;;;;;;;3.50;3.00;;;;;;;;;;4982673;28;20425;-67
2023/06/13 10:22:45;;;;;;;3.40;3.10;;;;;;;;;;4993186;28;20434;-68
2023/06/13 10:25:13;;;;;;;3.80;3.00;;;;;;;;;;4975587;28;20931;-67
2023/06/13 10:27:43;;;;;;;3.35;3.10;;;;;;;;;;5028487;28;20803;-67
2023/06/13 10:30:15;;;;;;;3.20;2.90;;;;;;;;;;4968507;28;20470;-68
2023/06/13 10:32:59;;;;;;;3.17;2.93;;;;;;;;;;4946282;28;20442;-67
2023/06/13 10:35:36;;;;;;;4.03;3.00;;;;;;;;;;4959508;28;20449;-67
2023/06/13 10:38:21;;;;;;;3.25;2.95;;;;;;;;;;4949143;28;20773;-68
2023/06/13 10:41:03;;;;;;;3.00;2.80;;;;;;;;;;5004728;28;20464;-67
2023/06/13 10:43:32;;;;;;;3.70;3.10;;;;;;;;;;4934417;28;20434;-68
2023/06/13 10:46:04;;;;;;;2.97;2.78;;;;;;;;;;4990758;28;20436;-68
2023/06/13 10:48:37;;;;;;;3.10;2.90;;;;;;;;;;4993966;28;20433;-68
2023/06/13 10:51:04;;;;;;;3.70;3.30;;;;;;;;;;4981867;28;20469;-68
2023/06/13 10:53:33;;;;;;;3.20;2.90;;;;;;;;;;5007442;28;20477;-67
2023/06/13 10:56:00;;;;;;;3.60;3.10;;;;;;;;;;4981903;28;20491;-67
2023/06/13 10:58:28;;;;;;;3.05;2.60;;;;;;;;;;4949202;28;20491;-68
2023/06/13 11:00:56;;;;;;;3.50;3.20;;;;;;;;;;4947273;28;20446;-68
2023/06/13 11:03:30;;;;;;;3.85;3.55;;;;;;;;;;4950530;28;20778;-68
2023/06/13 11:06:05;;;;;;;3.42;2.90;;;;;;;;;;4948058;28;20450;-68
2023/06/13 11:08:33;;;;;;;3.13;2.90;;;;;;;;;;4963308;28;20434;-68
2023/06/13 11:11:00;;;;;;;2.90;2.70;;;;;;;;;;4957887;28;20429;-68
2023/06/13 11:13:28;;;;;;;3.10;2.90;;;;;;;;;;4948835;28;20796;-68
2023/06/13 11:15:56;;;;;;;4.75;3.20;;;;;;;;;;4946064;28;20437;-68
2023/06/13 11:18:33;;;;;;;3.10;2.90;;;;;;;;;;4947692;28;20851;-68
2023/06/13 11:21:03;;;;;;;3.30;3.00;;;;;;;;;;4944681;28;20571;-68
2023/06/13 11:23:40;;;;;;;2.90;2.70;;;;;;;;;;4958876;28;20445;-67
2023/06/13 11:26:07;;;;;;;3.00;2.80;;;;;;;;;;4948527;28;20872;-68
2023/06/13 11:28:35;;;;;;;3.20;2.90;;;;;;;;;;4982296;28;20429;-68
2023/06/13 11:31:03;;;;;;;3.10;2.80;;;;;;;;;;4945609;28;20437;-68
2023/06/13 11:33:33;;;;;;;2.80;2.60;;;;;;;;;;4947490;28;20503;-67
2023/06/13 11:36:02;;;;;;;2.90;2.70;;;;;;;;;;4950183;28;20442;-68
2023/06/13 11:38:31;;;;;;;2.63;2.42;;;;;;;;;;4946024;28;20434;-68
2023/06/13 11:40:59;;;;;;;2.90;2.70;;;;;;;;;;4945643;28;20450;-68
2023/06/13 11:43:26;;;;;;;2.70;2.30;;;;;;;;;;4946914;28;20952;-67
2023/06/13 11:45:58;;;;;;;2.63;2.35;;;;;;;;;;4945290;28;20520;-67
2023/06/13 11:48:25;;;;;;;2.30;2.20;;;;;;;;;;4945176;28;20967;-66
2023/06/13 11:50:52;;;;;;;2.30;2.20;;;;;;;;;;4946228;28;20437;-65
2023/06/13 11:53:22;;;;;;;2.70;2.53;;;;;;;;;;4980822;28;20444;-66
2023/06/13 11:55:50;;;;;;;2.70;2.30;;;;;;;;;;4952952;28;20648;-68
2023/06/13 11:58:17;;;;;;;2.60;2.40;;;;;;;;;;4949300;28;20434;-68
2023/06/13 12:00:53;;;;;;;2.30;2.10;;;;;;;;;;5001650;28;20456;-68
2023/06/13 12:03:21;;;;;;;2.40;2.20;;;;;;;;;;4947566;28;20473;-68
2023/06/13 12:05:48;;;;;;;2.80;2.40;;;;;;;;;;4948611;28;20523;-68
2023/06/13 12:08:16;;;;;;;2.50;2.20;;;;;;;;;;4987906;28;20908;-68
2023/06/13 12:10:47;;;;;;;3.43;2.30;;;;;;;;;;4957587;28;20438;-69
2023/06/13 12:13:16;;;;;;;3.40;2.20;;;;;;;;;;4949450;28;20441;-69
2023/06/13 12:15:43;;;;;;;2.53;2.33;;;;;;;;;;4964226;28;20433;-69
2023/06/13 12:18:10;;;;;;;2.20;2.00;;;;;;;;;;4949979;28;20421;-69
2023/06/13 12:20:48;;;;;;;2.35;2.13;;;;;;;;;;4957049;28;20827;-68
2023/06/13 12:23:15;;;;;;;2.45;2.25;;;;;;;;;;4959330;28;20476;-69
2023/06/13 12:25:42;;;;;;;2.43;2.17;;;;;;;;;;4947843;28;20449;-69
2023/06/13 12:28:15;;;;;;;2.00;1.90;;;;;;;;;;4950064;28;20440;-69
2023/06/13 12:30:42;;;;;;;1.90;1.70;;;;;;;;;;4943309;28;20780;-69
2023/06/13 12:33:09;;;;;;;2.10;1.90;;;;;;;;;;4959124;28;20441;-69
2023/06/13 12:35:36;;;;;;;1.90;1.80;;;;;;;;;;4962195;28;20448;-71
2023/06/13 12:38:04;;;;;;;1.70;1.60;;;;;;;;;;4954944;28;20422;-71
2023/06/13 12:40:32;;;;;;;1.65;1.55;;;;;;;;;;4984983;28;20504;-71
2023/06/13 12:43:00;;;;;;;1.90;1.70;;;;;;;;;;4955511;28;20432;-70
2023/06/13 12:45:29;;;;;;;1.70;1.60;;;;;;;;;;5007768;28;20477;-70
2023/06/13 12:47:56;;;;;;;1.42;1.42;;;;;;;;;;4961655;28;20526;-70
2023/06/13 12:50:24;;;;;;;1.70;1.60;;;;;;;;;;4941099;28;20470;-70
2023/06/13 12:52:51;;;;;;;2.50;1.70;;;;;;;;;;4944030;28;20970;-70
2023/06/13 12:55:21;;;;;;;2.00;1.70;;;;;;;;;;4960709;28;20476;-70
2023/06/13 12:57:48;;;;;;;1.80;1.70;;;;;;;;;;4951183;28;20425;-70
2023/06/13 13:00:19;;;;;;;1.73;1.60;;;;;;;;;;4947613;28;20450;-70
2023/06/13 13:02:48;;;;;;;2.50;1.60;;;;;;;;;;4953133;28;20874;-69
2023/06/13 13:05:15;;;;;;;1.80;1.70;;;;;;;;;;4960306;28;20449;-69
2023/06/13 13:07:42;;;;;;;1.70;1.60;;;;;;;;;;4957996;28;20437;-70
2023/06/13 13:10:09;;;;;;;1.88;1.77;;;;;;;;;;4946109;28;20449;-67
2023/06/13 13:12:36;;;;;;;1.90;1.70;;;;;;;;;;4950177;28;20503;-69
2023/06/13 13:15:03;;;;;;;2.45;1.70;;;;;;;;;;4974189;28;20440;-70
2023/06/13 13:17:30;;;;;;;1.75;1.63;;;;;;;;;;4970952;28;20923;-69
2023/06/13 13:19:59;;;;;;;2.60;2.00;;;;;;;;;;4966271;28;20444;-67
2023/06/13 13:22:26;;;;;;;2.40;2.20;;;;;;;;;;4955920;28;20453;-69
2023/06/13 13:24:53;;;;;;;2.75;2.55;;;;;;;;;;4962523;28;20429;-68
2023/06/13 13:27:20;;;;;;;3.17;2.88;;;;;;;;;;4996951;28;20812;-67
2023/06/13 13:29:47;;;;;;;2.50;2.30;;;;;;;;;;4955676;28;20445;-66
2023/06/13 13:32:14;;;;;;;3.10;2.20;;;;;;;;;;4976930;28;20437;-67
2023/06/13 13:34:41;;;;;;;2.90;2.60;;;;;;;;;;4968016;28;20442;-68
2023/06/13 13:37:09;;;;;;;2.88;2.60;;;;;;;;;;4959016;28;20432;-68
2023/06/13 13:39:36;;;;;;;2.92;2.72;;;;;;;;;;4988405;28;20982;-69
2023/06/13 13:42:04;;;;;;;2.90;2.70;;;;;;;;;;4992818;28;20916;-68
2023/06/13 13:44:31;;;;;;;3.00;2.80;;;;;;;;;;4954899;28;20517;-68
2023/06/13 13:46:58;;;;;;;2.80;2.60;;;;;;;;;;4950161;28;20831;-66
2023/06/13 13:49:27;;;;;;;3.10;2.90;;;;;;;;;;4939839;28;20437;-68
2023/06/13 13:51:54;;;;;;;3.20;2.90;;;;;;;;;;4949822;28;20438;-67
2023/06/13 13:54:22;;;;;;;3.00;2.70;;;;;;;;;;4946760;28;20448;-67
2023/06/13 13:56:49;;;;;;;3.20;2.90;;;;;;;;;;4945644;28;20445;-68
2023/06/13 13:59:16;;;;;;;3.33;3.03;;;;;;;;;;4962570;28;20438;-67
2023/06/13 14:01:43;;;;;;;3.07;2.87;;;;;;;;;;4993839;28;20447;-67
2023/06/13 14:04:13;;;;;;;3.20;2.90;;;;;;;;;;4949495;28;20446;-67
2023/06/13 14:06:41;;;;;;;3.40;3.10;;;;;;;;;;4947720;28;20429;-67
2023/06/13 14:09:09;;;;;;;4.30;3.90;;;;;;;;;;4948617;28;20437;-67
2023/06/13 14:11:38;;;;;;;4.10;3.15;;;;;;;;;;4992376;28;20421;-67
2023/06/13 14:14:05;;;;;;;3.10;2.80;;;;;;;;;;4948827;28;20444;-67
2023/06/13 14:16:32;;;;;;;3.08;2.88;;;;;;;;;;4948935;28;20442;-68
2023/06/13 14:19:00;;;;;;;3.80;2.70;;;;;;;;;;5006560;28;20465;-68
2023/06/13 14:21:27;;;;;;;3.50;3.25;;;;;;;;;;4981153;28;20433;-67
2023/06/13 14:23:55;;;;;;;3.20;3.00;;;;;;;;;;4971286;28;21286;-66
2023/06/13 14:26:23;;;;;;;2.93;2.70;;;;;;;;;;4981878;28;20461;-66
2023/06/13 14:28:52;;;;;;;3.20;2.80;;;;;;;;;;4951439;28;20908;-67
2023/06/13 14:31:19;;;;;;;3.03;2.83;;;;;;;;;;4964565;28;20425;-67
2023/06/13 14:33:48;;;;;;;3.38;3.08;;;;;;;;;;4959985;28;20466;-67
2023/06/13 14:36:15;;;;;;;3.50;2.97;;;;;;;;;;4950007;28;20469;-67
2023/06/13 14:38:43;;;;;;;4.15;3.10;;;;;;;;;;4943841;28;20447;-69
2023/06/13 14:41:10;;;;;;;3.20;2.90;;;;;;;;;;4949979;28;20429;-67
2023/06/13 14:43:38;;;;;;;3.60;2.85;;;;;;;;;;4957693;28;20418;-67
2023/06/13 14:46:08;;;;;;;3.40;3.00;;;;;;;;;;4945893;28;20443;-68
2023/06/13 14:48:36;;;;;;;3.10;2.90;;;;;;;;;;4949187;28;20906;-68